Boston, Massachusetts
Current Conditions -  °F | °C
As of 7:54 AM on Saturday 25 Oct 2014 (Local Time) from KBOS Reporting Station
Few Clouds Few Clouds  
Wind Chill:   Ceiling: Unl
Heat Index:   Visibility: 10mi
Dew Point:   Wind: 8mph
Humidity: 71%   Direction: 250°WSW
Pressure: 29.76"   Gusts: NA
Location:  42.36°N, 71.06°W
Report Text: KBOS 251154Z 25007KT 10SM FEW200 09/04 A2976 RMK AO2 SLP077 T00940044 10094 20078 53003
Loading
Personal Weather Stations






























Interactive Weather Map New forecast layout! Learn more

10-Day Weather Forecast

Advertisements
Track Severe Weather on mobile